sensor_id;sensor_type;location;lat;lon;timestamp;P1;durP1;ratioP1;P2;durP2;ratioP2
75311;SDS011;63906;55.686;37.532;2023-07-31T00:02:42;2.13;;;1.33;;
75311;SDS011;63906;55.686;37.532;2023-07-31T00:07:42;1.42;;;1.33;;
75311;SDS011;63906;55.686;37.532;2023-07-31T00:12:43;2.53;;;1.60;;
75311;SDS011;63906;55.686;37.532;2023-07-31T00:17:45;1.85;;;1.33;;
75311;SDS011;63906;55.686;37.532;2023-07-31T00:22:45;2.05;;;1.48;;
75311;SDS011;63906;55.686;37.532;2023-07-31T00:27:46;2.10;;;1.20;;
75311;SDS011;63906;55.686;37.532;2023-07-31T00:32:46;1.93;;;1.50;;
75311;SDS011;63906;55.686;37.532;2023-07-31T00:37:47;1.75;;;1.20;;
75311;SDS011;63906;55.686;37.532;2023-07-31T00:42:47;3.25;;;1.77;;
75311;SDS011;63906;55.686;37.532;2023-07-31T00:47:48;2.90;;;1.80;;
75311;SDS011;63906;55.686;37.532;2023-07-31T00:52:48;2.42;;;1.98;;
75311;SDS011;63906;55.686;37.532;2023-07-31T00:57:49;2.72;;;1.77;;
75311;SDS011;63906;55.686;37.532;2023-07-31T01:02:51;2.22;;;1.70;;
75311;SDS011;63906;55.686;37.532;2023-07-31T01:07:58;2.95;;;2.03;;
75311;SDS011;63906;55.686;37.532;2023-07-31T01:13:03;2.47;;;1.95;;
75311;SDS011;63906;55.686;37.532;2023-07-31T01:18:04;2.35;;;2.15;;
75311;SDS011;63906;55.686;37.532;2023-07-31T01:28:33;2.58;;;1.30;;
75311;SDS011;63906;55.686;37.532;2023-07-31T01:33:44;2.60;;;1.70;;
75311;SDS011;63906;55.686;37.532;2023-07-31T01:38:46;2.38;;;1.63;;
75311;SDS011;63906;55.686;37.532;2023-07-31T01:43:46;1.43;;;1.27;;
75311;SDS011;63906;55.686;37.532;2023-07-31T01:48:47;1.85;;;1.25;;
75311;SDS011;63906;55.686;37.532;2023-07-31T01:53:47;1.77;;;1.23;;
75311;SDS011;63906;55.686;37.532;2023-07-31T01:58:48;1.88;;;1.30;;
75311;SDS011;63906;55.686;37.532;2023-07-31T02:03:48;1.20;;;1.10;;
75311;SDS011;63906;55.686;37.532;2023-07-31T02:08:49;1.55;;;1.00;;
75311;SDS011;63906;55.686;37.532;2023-07-31T02:13:49;2.08;;;1.20;;
75311;SDS011;63906;55.686;37.532;2023-07-31T02:18:50;1.43;;;1.17;;
75311;SDS011;63906;55.686;37.532;2023-07-31T02:23:50;1.42;;;1.10;;
75311;SDS011;63906;55.686;37.532;2023-07-31T02:28:51;1.50;;;1.20;;
75311;SDS011;63906;55.686;37.532;2023-07-31T02:33:51;1.30;;;0.90;;
75311;SDS011;63906;55.686;37.532;2023-07-31T02:38:52;1.73;;;1.17;;
75311;SDS011;63906;55.686;37.532;2023-07-31T02:43:52;1.30;;;1.00;;
75311;SDS011;63906;55.686;37.532;2023-07-31T02:48:53;1.87;;;1.20;;
75311;SDS011;63906;55.686;37.532;2023-07-31T02:53:53;3.00;;;1.90;;
75311;SDS011;63906;55.686;37.532;2023-07-31T02:58:54;2.58;;;2.05;;
75311;SDS011;63906;55.686;37.532;2023-07-31T03:03:54;2.17;;;1.90;;
75311;SDS011;63906;55.686;37.532;2023-07-31T03:08:55;4.68;;;2.90;;
75311;SDS011;63906;55.686;37.532;2023-07-31T03:13:55;3.25;;;2.22;;
75311;SDS011;63906;55.686;37.532;2023-07-31T03:18:56;2.40;;;1.90;;
75311;SDS011;63906;55.686;37.532;2023-07-31T03:23:56;2.17;;;1.85;;
75311;SDS011;63906;55.686;37.532;2023-07-31T03:28:57;2.27;;;1.80;;
75311;SDS011;63906;55.686;37.532;2023-07-31T03:33:57;1.77;;;1.50;;
75311;SDS011;63906;55.686;37.532;2023-07-31T03:38:58;3.00;;;1.67;;
75311;SDS011;63906;55.686;37.532;2023-07-31T03:43:58;3.03;;;2.10;;
75311;SDS011;63906;55.686;37.532;2023-07-31T03:48:59;2.83;;;2.13;;
75311;SDS011;63906;55.686;37.532;2023-07-31T03:53:59;2.33;;;2.00;;
75311;SDS011;63906;55.686;37.532;2023-07-31T03:59:00;2.83;;;2.20;;
75311;SDS011;63906;55.686;37.532;2023-07-31T04:04:00;2.50;;;2.30;;
75311;SDS011;63906;55.686;37.532;2023-07-31T04:09:02;2.00;;;1.73;;
75311;SDS011;63906;55.686;37.532;2023-07-31T04:14:02;2.63;;;1.98;;
75311;SDS011;63906;55.686;37.532;2023-07-31T04:19:03;2.40;;;1.75;;
75311;SDS011;63906;55.686;37.532;2023-07-31T04:24:04;2.47;;;1.95;;
75311;SDS011;63906;55.686;37.532;2023-07-31T04:29:04;6.03;;;2.20;;
75311;SDS011;63906;55.686;37.532;2023-07-31T04:34:05;4.28;;;2.67;;
75311;SDS011;63906;55.686;37.532;2023-07-31T04:39:05;3.63;;;2.33;;
75311;SDS011;63906;55.686;37.532;2023-07-31T04:44:06;2.95;;;2.30;;
75311;SDS011;63906;55.686;37.532;2023-07-31T04:49:06;3.00;;;1.98;;
75311;SDS011;63906;55.686;37.532;2023-07-31T04:54:07;2.47;;;1.95;;
75311;SDS011;63906;55.686;37.532;2023-07-31T04:59:08;3.28;;;1.95;;
75311;SDS011;63906;55.686;37.532;2023-07-31T05:04:09;2.20;;;2.00;;
75311;SDS011;63906;55.686;37.532;2023-07-31T05:09:10;1.85;;;1.55;;
75311;SDS011;63906;55.686;37.532;2023-07-31T05:14:10;2.55;;;1.60;;
75311;SDS011;63906;55.686;37.532;2023-07-31T05:19:11;3.00;;;1.53;;
75311;SDS011;63906;55.686;37.532;2023-07-31T05:24:11;2.97;;;1.90;;
75311;SDS011;63906;55.686;37.532;2023-07-31T05:29:12;3.43;;;1.90;;
75311;SDS011;63906;55.686;37.532;2023-07-31T05:34:12;2.63;;;1.45;;
75311;SDS011;63906;55.686;37.532;2023-07-31T05:39:16;4.07;;;1.75;;
75311;SDS011;63906;55.686;37.532;2023-07-31T05:44:16;4.13;;;1.60;;
75311;SDS011;63906;55.686;37.532;2023-07-31T05:49:17;2.97;;;1.60;;
75311;SDS011;63906;55.686;37.532;2023-07-31T05:54:17;3.27;;;1.60;;
75311;SDS011;63906;55.686;37.532;2023-07-31T05:59:18;3.25;;;1.85;;
75311;SDS011;63906;55.686;37.532;2023-07-31T06:04:18;5.67;;;1.87;;
75311;SDS011;63906;55.686;37.532;2023-07-31T06:09:19;3.33;;;1.67;;
75311;SDS011;63906;55.686;37.532;2023-07-31T06:14:20;4.38;;;1.50;;
75311;SDS011;63906;55.686;37.532;2023-07-31T06:19:20;3.20;;;1.55;;
75311;SDS011;63906;55.686;37.532;2023-07-31T06:24:21;3.25;;;1.80;;
75311;SDS011;63906;55.686;37.532;2023-07-31T06:29:22;2.65;;;1.77;;
75311;SDS011;63906;55.686;37.532;2023-07-31T06:34:22;1.93;;;1.50;;
75311;SDS011;63906;55.686;37.532;2023-07-31T06:39:23;1.60;;;1.30;;
75311;SDS011;63906;55.686;37.532;2023-07-31T06:44:23;1.92;;;1.30;;
75311;SDS011;63906;55.686;37.532;2023-07-31T06:49:24;2.27;;;1.40;;
75311;SDS011;63906;55.686;37.532;2023-07-31T06:54:24;1.88;;;1.30;;
75311;SDS011;63906;55.686;37.532;2023-07-31T06:59:25;2.08;;;1.17;;
75311;SDS011;63906;55.686;37.532;2023-07-31T07:04:25;3.05;;;1.23;;
75311;SDS011;63906;55.686;37.532;2023-07-31T07:09:26;3.47;;;1.30;;
75311;SDS011;63906;55.686;37.532;2023-07-31T07:14:27;3.90;;;1.00;;
75311;SDS011;63906;55.686;37.532;2023-07-31T07:19:27;1.90;;;0.87;;
75311;SDS011;63906;55.686;37.532;2023-07-31T07:24:28;1.92;;;1.05;;
75311;SDS011;63906;55.686;37.532;2023-07-31T07:29:29;1.33;;;0.88;;
75311;SDS011;63906;55.686;37.532;2023-07-31T07:34:30;1.52;;;0.80;;
75311;SDS011;63906;55.686;37.532;2023-07-31T07:39:30;1.65;;;1.15;;
75311;SDS011;63906;55.686;37.532;2023-07-31T07:44:31;1.45;;;0.90;;
75311;SDS011;63906;55.686;37.532;2023-07-31T07:49:32;2.13;;;1.15;;
75311;SDS011;63906;55.686;37.532;2023-07-31T07:54:34;1.77;;;1.13;;
75311;SDS011;63906;55.686;37.532;2023-07-31T07:59:34;2.05;;;1.25;;
75311;SDS011;63906;55.686;37.532;2023-07-31T08:04:35;2.08;;;1.05;;
75311;SDS011;63906;55.686;37.532;2023-07-31T08:09:35;1.73;;;1.13;;
75311;SDS011;63906;55.686;37.532;2023-07-31T08:14:36;1.63;;;1.00;;
75311;SDS011;63906;55.686;37.532;2023-07-31T08:19:36;1.77;;;1.20;;
75311;SDS011;63906;55.686;37.532;2023-07-31T08:24:37;2.47;;;1.15;;
75311;SDS011;63906;55.686;37.532;2023-07-31T08:29:37;1.90;;;1.10;;
75311;SDS011;63906;55.686;37.532;2023-07-31T08:34:38;2.50;;;1.23;;
75311;SDS011;63906;55.686;37.532;2023-07-31T08:39:38;2.10;;;1.10;;
75311;SDS011;63906;55.686;37.532;2023-07-31T08:44:39;2.17;;;1.30;;
75311;SDS011;63906;55.686;37.532;2023-07-31T08:49:41;2.03;;;1.20;;
75311;SDS011;63906;55.686;37.532;2023-07-31T08:54:45;1.73;;;1.30;;
75311;SDS011;63906;55.686;37.532;2023-07-31T08:59:46;3.47;;;1.00;;
75311;SDS011;63906;55.686;37.532;2023-07-31T09:04:47;3.25;;;1.40;;
75311;SDS011;63906;55.686;37.532;2023-07-31T09:09:47;2.08;;;1.30;;
75311;SDS011;63906;55.686;37.532;2023-07-31T09:14:48;3.45;;;1.45;;
75311;SDS011;63906;55.686;37.532;2023-07-31T09:19:49;1.85;;;1.10;;
75311;SDS011;63906;55.686;37.532;2023-07-31T09:24:49;1.70;;;1.30;;
75311;SDS011;63906;55.686;37.532;2023-07-31T09:29:58;3.05;;;1.38;;
75311;SDS011;63906;55.686;37.532;2023-07-31T09:34:59;1.30;;;1.15;;
75311;SDS011;63906;55.686;37.532;2023-07-31T09:39:59;3.92;;;1.33;;
75311;SDS011;63906;55.686;37.532;2023-07-31T09:45:09;2.35;;;1.85;;
75311;SDS011;63906;55.686;37.532;2023-07-31T09:50:10;2.08;;;1.20;;
75311;SDS011;63906;55.686;37.532;2023-07-31T09:55:11;1.45;;;1.15;;
75311;SDS011;63906;55.686;37.532;2023-07-31T10:00:11;2.25;;;1.30;;
75311;SDS011;63906;55.686;37.532;2023-07-31T10:05:14;1.45;;;1.30;;
75311;SDS011;63906;55.686;37.532;2023-07-31T10:10:19;2.17;;;1.35;;
75311;SDS011;63906;55.686;37.532;2023-07-31T10:15:20;1.70;;;1.08;;
75311;SDS011;63906;55.686;37.532;2023-07-31T10:20:22;2.85;;;1.10;;
75311;SDS011;63906;55.686;37.532;2023-07-31T10:25:23;1.67;;;1.30;;
75311;SDS011;63906;55.686;37.532;2023-07-31T10:30:26;1.30;;;0.98;;
75311;SDS011;63906;55.686;37.532;2023-07-31T10:35:29;1.85;;;1.00;;
75311;SDS011;63906;55.686;37.532;2023-07-31T10:40:30;2.30;;;1.30;;
75311;SDS011;63906;55.686;37.532;2023-07-31T10:50:38;1.92;;;1.33;;
75311;SDS011;63906;55.686;37.532;2023-07-31T10:55:46;2.20;;;1.30;;
75311;SDS011;63906;55.686;37.532;2023-07-31T11:00:48;1.38;;;1.10;;
75311;SDS011;63906;55.686;37.532;2023-07-31T11:16:02;2.13;;;1.17;;
75311;SDS011;63906;55.686;37.532;2023-07-31T11:21:03;3.25;;;1.10;;
75311;SDS011;63906;55.686;37.532;2023-07-31T11:26:04;2.00;;;1.10;;
75311;SDS011;63906;55.686;37.532;2023-07-31T11:31:05;2.28;;;1.50;;
75311;SDS011;63906;55.686;37.532;2023-07-31T11:36:16;1.45;;;1.13;;
75311;SDS011;63906;55.686;37.532;2023-07-31T11:41:18;1.08;;;0.85;;
75311;SDS011;63906;55.686;37.532;2023-07-31T11:46:19;2.08;;;1.10;;
75311;SDS011;63906;55.686;37.532;2023-07-31T11:51:20;1.60;;;1.20;;
75311;SDS011;63906;55.686;37.532;2023-07-31T11:56:21;2.05;;;1.50;;
75311;SDS011;63906;55.686;37.532;2023-07-31T12:01:27;1.40;;;1.30;;
75311;SDS011;63906;55.686;37.532;2023-07-31T12:06:32;1.95;;;1.48;;
75311;SDS011;63906;55.686;37.532;2023-07-31T12:11:46;2.70;;;1.60;;
75311;SDS011;63906;55.686;37.532;2023-07-31T12:16:47;1.70;;;1.50;;
75311;SDS011;63906;55.686;37.532;2023-07-31T12:21:52;1.75;;;1.45;;
75311;SDS011;63906;55.686;37.532;2023-07-31T12:26:53;2.05;;;1.85;;
75311;SDS011;63906;55.686;37.532;2023-07-31T12:31:55;1.60;;;1.50;;
75311;SDS011;63906;55.686;37.532;2023-07-31T12:36:55;1.80;;;1.60;;
75311;SDS011;63906;55.686;37.532;2023-07-31T12:41:56;1.67;;;1.40;;
75311;SDS011;63906;55.686;37.532;2023-07-31T12:46:56;2.42;;;1.55;;
75311;SDS011;63906;55.686;37.532;2023-07-31T12:56:57;2.00;;;1.50;;
75311;SDS011;63906;55.686;37.532;2023-07-31T13:01:58;1.90;;;1.70;;
75311;SDS011;63906;55.686;37.532;2023-07-31T13:11:59;2.23;;;1.40;;
75311;SDS011;63906;55.686;37.532;2023-07-31T13:16:59;1.92;;;1.20;;
75311;SDS011;63906;55.686;37.532;2023-07-31T13:21:59;3.25;;;1.60;;
75311;SDS011;63906;55.686;37.532;2023-07-31T13:27:00;2.40;;;1.50;;
75311;SDS011;63906;55.686;37.532;2023-07-31T13:32:00;1.60;;;1.30;;
75311;SDS011;63906;55.686;37.532;2023-07-31T13:37:01;2.45;;;1.38;;
75311;SDS011;63906;55.686;37.532;2023-07-31T13:42:02;2.67;;;1.58;;
75311;SDS011;63906;55.686;37.532;2023-07-31T13:47:03;1.95;;;1.40;;
75311;SDS011;63906;55.686;37.532;2023-07-31T13:52:04;2.08;;;1.50;;
75311;SDS011;63906;55.686;37.532;2023-07-31T13:57:05;1.98;;;1.65;;
75311;SDS011;63906;55.686;37.532;2023-07-31T14:02:05;2.55;;;1.70;;
75311;SDS011;63906;55.686;37.532;2023-07-31T14:07:06;1.75;;;1.52;;
75311;SDS011;63906;55.686;37.532;2023-07-31T14:12:07;2.17;;;1.23;;
75311;SDS011;63906;55.686;37.532;2023-07-31T14:17:07;3.85;;;1.65;;
75311;SDS011;63906;55.686;37.532;2023-07-31T14:22:08;2.40;;;1.55;;
75311;SDS011;63906;55.686;37.532;2023-07-31T14:27:08;2.35;;;1.60;;
75311;SDS011;63906;55.686;37.532;2023-07-31T14:32:09;1.98;;;1.50;;
75311;SDS011;63906;55.686;37.532;2023-07-31T14:37:09;1.67;;;1.58;;
75311;SDS011;63906;55.686;37.532;2023-07-31T14:42:10;2.58;;;1.83;;
75311;SDS011;63906;55.686;37.532;2023-07-31T14:47:10;2.17;;;1.63;;
75311;SDS011;63906;55.686;37.532;2023-07-31T14:52:14;2.10;;;1.65;;
75311;SDS011;63906;55.686;37.532;2023-07-31T14:57:15;3.92;;;1.92;;
75311;SDS011;63906;55.686;37.532;2023-07-31T15:02:15;2.50;;;1.65;;
75311;SDS011;63906;55.686;37.532;2023-07-31T15:07:16;2.70;;;1.70;;
75311;SDS011;63906;55.686;37.532;2023-07-31T15:12:17;1.60;;;1.50;;
75311;SDS011;63906;55.686;37.532;2023-07-31T15:22:18;2.55;;;1.67;;
75311;SDS011;63906;55.686;37.532;2023-07-31T15:27:18;2.25;;;1.52;;
75311;SDS011;63906;55.686;37.532;2023-07-31T15:32:19;1.95;;;1.65;;
75311;SDS011;63906;55.686;37.532;2023-07-31T15:37:21;5.05;;;1.70;;
75311;SDS011;63906;55.686;37.532;2023-07-31T15:42:21;2.97;;;1.63;;
75311;SDS011;63906;55.686;37.532;2023-07-31T15:47:22;2.47;;;1.55;;
75311;SDS011;63906;55.686;37.532;2023-07-31T15:52:22;2.63;;;1.52;;
75311;SDS011;63906;55.686;37.532;2023-07-31T15:57:23;1.92;;;1.33;;
75311;SDS011;63906;55.686;37.532;2023-07-31T16:02:23;2.58;;;1.65;;
75311;SDS011;63906;55.686;37.532;2023-07-31T16:07:24;1.48;;;1.10;;
75311;SDS011;63906;55.686;37.532;2023-07-31T16:12:24;1.50;;;1.37;;
75311;SDS011;63906;55.686;37.532;2023-07-31T16:17:25;3.03;;;1.55;;
75311;SDS011;63906;55.686;37.532;2023-07-31T16:22:26;1.80;;;1.17;;
75311;SDS011;63906;55.686;37.532;2023-07-31T16:27:27;2.33;;;1.70;;
75311;SDS011;63906;55.686;37.532;2023-07-31T16:32:27;1.50;;;1.10;;
75311;SDS011;63906;55.686;37.532;2023-07-31T16:37:28;2.40;;;1.35;;
75311;SDS011;63906;55.686;37.532;2023-07-31T16:42:28;1.92;;;1.20;;
75311;SDS011;63906;55.686;37.532;2023-07-31T16:47:29;1.83;;;1.15;;
75311;SDS011;63906;55.686;37.532;2023-07-31T16:52:29;2.90;;;1.13;;
75311;SDS011;63906;55.686;37.532;2023-07-31T16:57:30;1.77;;;1.10;;
75311;SDS011;63906;55.686;37.532;2023-07-31T17:02:31;1.92;;;1.13;;
75311;SDS011;63906;55.686;37.532;2023-07-31T17:07:31;1.73;;;1.45;;
75311;SDS011;63906;55.686;37.532;2023-07-31T17:12:32;1.63;;;0.98;;
75311;SDS011;63906;55.686;37.532;2023-07-31T17:17:32;1.23;;;0.85;;
75311;SDS011;63906;55.686;37.532;2023-07-31T17:22:33;1.65;;;1.00;;
75311;SDS011;63906;55.686;37.532;2023-07-31T17:27:33;1.63;;;0.90;;
75311;SDS011;63906;55.686;37.532;2023-07-31T17:32:33;1.00;;;0.70;;
75311;SDS011;63906;55.686;37.532;2023-07-31T17:37:36;0.90;;;0.60;;
75311;SDS011;63906;55.686;37.532;2023-07-31T17:42:37;0.82;;;0.70;;
75311;SDS011;63906;55.686;37.532;2023-07-31T17:47:37;1.37;;;1.00;;
75311;SDS011;63906;55.686;37.532;2023-07-31T17:52:38;1.85;;;1.00;;
75311;SDS011;63906;55.686;37.532;2023-07-31T17:57:38;1.13;;;0.90;;
75311;SDS011;63906;55.686;37.532;2023-07-31T18:02:39;1.25;;;1.00;;
75311;SDS011;63906;55.686;37.532;2023-07-31T18:07:40;1.10;;;0.98;;
75311;SDS011;63906;55.686;37.532;2023-07-31T18:12:40;1.13;;;0.90;;
75311;SDS011;63906;55.686;37.532;2023-07-31T18:17:41;1.63;;;1.00;;
75311;SDS011;63906;55.686;37.532;2023-07-31T18:22:41;1.20;;;0.98;;
75311;SDS011;63906;55.686;37.532;2023-07-31T18:27:42;1.38;;;1.08;;
75311;SDS011;63906;55.686;37.532;2023-07-31T18:32:42;1.55;;;1.10;;
75311;SDS011;63906;55.686;37.532;2023-07-31T18:37:43;1.88;;;1.13;;
75311;SDS011;63906;55.686;37.532;2023-07-31T18:42:45;1.85;;;1.00;;
75311;SDS011;63906;55.686;37.532;2023-07-31T18:47:46;1.45;;;1.05;;
75311;SDS011;63906;55.686;37.532;2023-07-31T18:52:47;1.73;;;1.10;;
75311;SDS011;63906;55.686;37.532;2023-07-31T18:57:47;1.63;;;1.10;;
75311;SDS011;63906;55.686;37.532;2023-07-31T19:02:49;2.35;;;1.40;;
75311;SDS011;63906;55.686;37.532;2023-07-31T19:07:50;2.35;;;1.58;;
75311;SDS011;63906;55.686;37.532;2023-07-31T19:12:50;1.98;;;1.40;;
75311;SDS011;63906;55.686;37.532;2023-07-31T19:17:51;1.95;;;1.55;;
75311;SDS011;63906;55.686;37.532;2023-07-31T19:22:52;1.83;;;1.38;;
75311;SDS011;63906;55.686;37.532;2023-07-31T19:27:52;1.80;;;1.23;;
75311;SDS011;63906;55.686;37.532;2023-07-31T19:32:53;2.55;;;1.75;;
75311;SDS011;63906;55.686;37.532;2023-07-31T19:37:53;3.15;;;2.05;;
75311;SDS011;63906;55.686;37.532;2023-07-31T19:42:54;2.60;;;2.10;;
75311;SDS011;63906;55.686;37.532;2023-07-31T19:47:59;1.83;;;1.40;;
75311;SDS011;63906;55.686;37.532;2023-07-31T19:53:00;1.95;;;1.40;;
75311;SDS011;63906;55.686;37.532;2023-07-31T19:58:00;2.10;;;1.50;;
75311;SDS011;63906;55.686;37.532;2023-07-31T20:03:01;2.92;;;1.80;;
75311;SDS011;63906;55.686;37.532;2023-07-31T20:08:02;2.97;;;1.90;;
75311;SDS011;63906;55.686;37.532;2023-07-31T20:13:03;2.67;;;2.00;;
75311;SDS011;63906;55.686;37.532;2023-07-31T20:18:03;2.70;;;1.83;;
75311;SDS011;63906;55.686;37.532;2023-07-31T20:23:04;2.17;;;1.48;;
75311;SDS011;63906;55.686;37.532;2023-07-31T20:28:04;2.33;;;1.80;;
75311;SDS011;63906;55.686;37.532;2023-07-31T20:33:05;2.47;;;1.70;;
75311;SDS011;63906;55.686;37.532;2023-07-31T20:38:05;2.72;;;1.77;;
75311;SDS011;63906;55.686;37.532;2023-07-31T20:43:06;2.75;;;2.13;;
75311;SDS011;63906;55.686;37.532;2023-07-31T20:48:07;2.78;;;1.80;;
75311;SDS011;63906;55.686;37.532;2023-07-31T20:53:08;2.45;;;1.70;;
75311;SDS011;63906;55.686;37.532;2023-07-31T20:58:08;2.72;;;1.95;;
75311;SDS011;63906;55.686;37.532;2023-07-31T21:03:09;2.80;;;1.63;;
75311;SDS011;63906;55.686;37.532;2023-07-31T21:08:11;2.40;;;1.80;;
75311;SDS011;63906;55.686;37.532;2023-07-31T21:13:11;2.88;;;2.10;;
75311;SDS011;63906;55.686;37.532;2023-07-31T21:18:12;2.55;;;1.40;;
75311;SDS011;63906;55.686;37.532;2023-07-31T21:23:13;2.25;;;2.05;;
75311;SDS011;63906;55.686;37.532;2023-07-31T21:28:13;3.05;;;2.00;;
75311;SDS011;63906;55.686;37.532;2023-07-31T21:33:14;2.10;;;1.90;;
75311;SDS011;63906;55.686;37.532;2023-07-31T21:38:15;3.05;;;1.98;;
75311;SDS011;63906;55.686;37.532;2023-07-31T21:43:16;2.42;;;2.08;;
75311;SDS011;63906;55.686;37.532;2023-07-31T21:48:16;2.33;;;1.90;;
75311;SDS011;63906;55.686;37.532;2023-07-31T21:53:17;2.75;;;2.00;;
75311;SDS011;63906;55.686;37.532;2023-07-31T21:58:17;3.65;;;2.47;;
75311;SDS011;63906;55.686;37.532;2023-07-31T22:03:18;3.70;;;2.50;;
75311;SDS011;63906;55.686;37.532;2023-07-31T22:08:18;3.85;;;2.65;;
75311;SDS011;63906;55.686;37.532;2023-07-31T22:13:19;3.53;;;2.75;;
75311;SDS011;63906;55.686;37.532;2023-07-31T22:18:19;2.97;;;2.50;;
75311;SDS011;63906;55.686;37.532;2023-07-31T22:23:20;2.87;;;2.20;;
75311;SDS011;63906;55.686;37.532;2023-07-31T22:28:21;3.58;;;2.53;;
75311;SDS011;63906;55.686;37.532;2023-07-31T22:33:21;2.75;;;1.98;;
75311;SDS011;63906;55.686;37.532;2023-07-31T22:38:22;3.30;;;2.08;;
75311;SDS011;63906;55.686;37.532;2023-07-31T22:43:22;2.83;;;2.03;;
75311;SDS011;63906;55.686;37.532;2023-07-31T22:48:23;3.05;;;2.15;;
75311;SDS011;63906;55.686;37.532;2023-07-31T22:53:23;2.72;;;2.08;;
75311;SDS011;63906;55.686;37.532;2023-07-31T22:58:24;2.78;;;2.25;;
75311;SDS011;63906;55.686;37.532;2023-07-31T23:03:24;2.70;;;1.75;;
75311;SDS011;63906;55.686;37.532;2023-07-31T23:08:25;2.70;;;1.87;;
75311;SDS011;63906;55.686;37.532;2023-07-31T23:13:26;2.40;;;2.13;;
75311;SDS011;63906;55.686;37.532;2023-07-31T23:18:26;2.63;;;1.70;;
75311;SDS011;63906;55.686;37.532;2023-07-31T23:23:27;1.90;;;1.52;;
75311;SDS011;63906;55.686;37.532;2023-07-31T23:28:28;2.83;;;1.67;;
75311;SDS011;63906;55.686;37.532;2023-07-31T23:33:29;2.30;;;2.10;;
75311;SDS011;63906;55.686;37.532;2023-07-31T23:43:31;2.57;;;2.23;;
75311;SDS011;63906;55.686;37.532;2023-07-31T23:48:31;2.92;;;2.10;;
75311;SDS011;63906;55.686;37.532;2023-07-31T23:53:32;2.47;;;1.83;;
75311;SDS011;63906;55.686;37.532;2023-07-31T23:58:32;3.42;;;2.30;;
